Morning Shadows Ranch, CO

7:28 AM MDT on August 22, 2014 (GMT -0600)
KCOSOUTH6 | Change Station
CLOSE
Current Station
Personal Weather Station
Location: South Fork, CO
Elevation: 8225 ft
Nearby Weather Stations

Elev 8225 ft 37.67 °N, 106.64 °W | Updated 12 seconds ago

Scattered Clouds
Scattered Clouds
52.3 °F
Feels Like 52.3 °F
N
6.8
Wind Variable Wind from SW
Gusts 10.0 mph

Today
High -- | Low -- °F
--% Chance of Precip.
Yesterday
High -- | Low -- °F
Precip. -- in
6:27 AM 7:49 PM
Waning Crescent, 8% visible
Pressure 30.31 in
Visibility 10.0 miles
Clouds Scattered Clouds 10000 ft
Dew Point 40 °F
Humidity 65%
Rainfall 0.00 in
Snow Depth Not available.
UV 0 out of 12
Pollen 10.10 out of 12
Air Quality Not available.
Flu Activity Not available.
METAR KPSO 221315Z AUTO 00000KT 10SM SCT100 13/05 A3031 RMK AO2 T01270054

More Conditions Fewer Conditions

Pressure 30.31 in
Visibility 10.0 miles
Clouds Scattered Clouds 10000 ft
Dew Point 40 °F
Humidity 65%
Rainfall 0.00 in
Snow Depth Not available.
UV 0 out of 12
Pollen 10.10 out of 12
Air Quality Not available.
Flu Activity Not available.
METAR KPSO 221315Z AUTO 00000KT 10SM SCT100 13/05 A3031 RMK AO2 T01270054

More Conditions Fewer Conditions

10-Day Weather Forecast

Almanac

Astronomy

Aug. 22, 2014 Rise Set
Actual Time 6:27 AM MDT 7:49 PM MDT
Civil Twilight 6:00 AM MDT 8:16 PM MDT
Nautical Twilight 5:27 AM MDT 8:49 PM MDT
Astronomical Twilight 4:52 AM MDT 9:23 PM MDT
Moon 3:54 AM MDT 5:58 PM MDT
Length of Visible Light 14h 16m
Length of Day
13h 21m
Tomorrow will be 2m 15s shorter.
Waning Crescent, 8% of the Moon is Illuminated
Today
Waning Crescent
Aug 25
New
Sep 2
First Quarter
Sep 8
Full
Sep 15
Last Quarter

Today's Extremes

State Highs State Lows

Community

WunderPhotos

Upload Photos

1,746,164 photos uploaded!

Nearby

Snow Depth

Station Depth Elevation
Wolf Creek Summit 0 in 11000 ft
Upper San Juan 1 in 10130 ft
Lily Pond 0 in 11000 ft
Cochetopa Pass 0 in 10020 ft
Slumgullion 1 in 11440 ft

Earthquake Activity

City Distance Mag. Time & Date
No recent earthquake activity has been reported nearby.
Minimum magnitude displayed is 2.5.

Coastal Water Temperatures

Place Temperature
No Stations Reporting

Nearby Weather Stations